SV75 weather

Machiques North Airport
Zulia, Venezuela

Public forecast

Using degrees Celsius for public forecast. Weather courtesy of forecast.io.

METAR (pilot weather report)

Closest report is Alfonso L√≥pez Pumarejo Airport, 46.0 nm (85.2 km) WNW. Retrieved 2019/04/25 23:00 UTC (24 minutes ago):

SKVP 252300Z 05013KT 9999 VCSH SCT020TCU SCT070 31/23 A2985 RMK TCU VCSH NE/E

TAF (pilot weather forecast)

Closest forecast is La Chinita International Airport, 56.4 nm (104.5 km) ENE. Retrieved 2019/04/25 18:08 UTC (5 hours ago):

TAF SVMC 251600Z 2518/2618 28003KT 9999 SCT020 TX32/1900Z TN24/0900Z BECMG 2518/2522 21005KT 9999 BKN016